sensor_id;sensor_type;location;lat;lon;timestamp;pressure;altitude;pressure_sealevel;temperature;humidity
54736;BME280;40632;51.442;11.936;2022-08-18T00:02:13;99849.78;;;30.01;45.24
54736;BME280;40632;51.442;11.936;2022-08-18T00:04:40;99853.06;;;29.41;45.95
54736;BME280;40632;51.442;11.936;2022-08-18T00:07:08;99858.25;;;29.31;46.12
54736;BME280;40632;51.442;11.936;2022-08-18T00:09:39;99856.72;;;28.82;47.31
54736;BME280;40632;51.442;11.936;2022-08-18T00:12:11;99856.53;;;29.24;46.64
54736;BME280;40632;51.442;11.936;2022-08-18T00:14:37;99857.72;;;29.17;46.89
54736;BME280;40632;51.442;11.936;2022-08-18T00:17:03;99853.50;;;28.97;46.74
54736;BME280;40632;51.442;11.936;2022-08-18T00:19:29;99848.28;;;28.67;47.46
54736;BME280;40632;51.442;11.936;2022-08-18T00:21:54;99852.91;;;28.55;47.47
54736;BME280;40632;51.442;11.936;2022-08-18T00:24:20;99851.44;;;28.52;47.59
54736;BME280;40632;51.442;11.936;2022-08-18T00:26:48;99854.47;;;28.91;47.58
54736;BME280;40632;51.442;11.936;2022-08-18T00:29:14;99852.72;;;28.85;47.38
54736;BME280;40632;51.442;11.936;2022-08-18T00:31:39;99857.56;;;28.12;48.08
54736;BME280;40632;51.442;11.936;2022-08-18T00:34:05;99857.44;;;28.07;48.83
54736;BME280;40632;51.442;11.936;2022-08-18T00:36:30;99855.44;;;27.72;48.86
54736;BME280;40632;51.442;11.936;2022-08-18T00:38:56;99856.97;;;28.10;48.39
54736;BME280;40632;51.442;11.936;2022-08-18T00:41:22;99844.53;;;28.32;47.63
54736;BME280;40632;51.442;11.936;2022-08-18T00:43:50;99844.88;;;28.36;47.87
54736;BME280;40632;51.442;11.936;2022-08-18T00:46:18;99839.47;;;28.36;48.23
54736;BME280;40632;51.442;11.936;2022-08-18T00:48:45;99828.69;;;28.71;47.36
54736;BME280;40632;51.442;11.936;2022-08-18T00:51:13;99829.84;;;28.76;46.73
54736;BME280;40632;51.442;11.936;2022-08-18T00:53:43;99825.84;;;28.07;48.62
54736;BME280;40632;51.442;11.936;2022-08-18T00:56:13;99826.50;;;27.79;49.52
54736;BME280;40632;51.442;11.936;2022-08-18T00:58:45;99819.06;;;27.63;49.84
54736;BME280;40632;51.442;11.936;2022-08-18T01:01:15;99825.75;;;27.90;49.56
54736;BME280;40632;51.442;11.936;2022-08-18T01:03:43;99832.66;;;27.98;49.76
54736;BME280;40632;51.442;11.936;2022-08-18T01:06:13;99834.44;;;27.74;49.39
54736;BME280;40632;51.442;11.936;2022-08-18T01:08:40;99829.63;;;28.18;48.81
54736;BME280;40632;51.442;11.936;2022-08-18T01:11:06;99821.66;;;28.35;48.44
54736;BME280;40632;51.442;11.936;2022-08-18T01:13:32;99832.44;;;28.00;49.69
54736;BME280;40632;51.442;11.936;2022-08-18T01:15:58;99832.31;;;28.18;48.53
54736;BME280;40632;51.442;11.936;2022-08-18T01:18:27;99833.38;;;28.41;48.39
54736;BME280;40632;51.442;11.936;2022-08-18T01:20:59;99824.13;;;28.60;47.90
54736;BME280;40632;51.442;11.936;2022-08-18T01:23:30;99829.38;;;27.96;48.59
54736;BME280;40632;51.442;11.936;2022-08-18T01:25:55;99819.84;;;27.93;48.72
54736;BME280;40632;51.442;11.936;2022-08-18T01:28:21;99829.09;;;27.86;48.69
54736;BME280;40632;51.442;11.936;2022-08-18T01:30:49;99827.03;;;28.00;48.30
54736;BME280;40632;51.442;11.936;2022-08-18T01:33:15;99829.28;;;28.03;48.68
54736;BME280;40632;51.442;11.936;2022-08-18T01:35:42;99822.31;;;27.83;48.50
54736;BME280;40632;51.442;11.936;2022-08-18T01:38:09;99826.44;;;27.98;48.08
54736;BME280;40632;51.442;11.936;2022-08-18T01:40:38;99817.56;;;28.21;48.00
54736;BME280;40632;51.442;11.936;2022-08-18T01:43:03;99823.53;;;28.11;48.25
54736;BME280;40632;51.442;11.936;2022-08-18T01:45:29;99828.78;;;28.29;47.59
54736;BME280;40632;51.442;11.936;2022-08-18T01:47:54;99824.47;;;28.28;48.09
54736;BME280;40632;51.442;11.936;2022-08-18T01:50:21;99825.91;;;28.55;47.32
54736;BME280;40632;51.442;11.936;2022-08-18T01:52:47;99824.22;;;27.94;48.48
54736;BME280;40632;51.442;11.936;2022-08-18T01:55:12;99832.06;;;27.54;49.29
54736;BME280;40632;51.442;11.936;2022-08-18T01:57:41;99821.13;;;27.49;49.67
54736;BME280;40632;51.442;11.936;2022-08-18T02:00:08;99822.44;;;27.46;49.48
54736;BME280;40632;51.442;11.936;2022-08-18T02:02:34;99822.31;;;27.23;49.36
54736;BME280;40632;51.442;11.936;2022-08-18T02:05:03;99817.38;;;27.19;49.56
54736;BME280;40632;51.442;11.936;2022-08-18T02:07:29;99823.69;;;27.32;49.89
54736;BME280;40632;51.442;11.936;2022-08-18T02:09:55;99820.94;;;27.01;50.10
54736;BME280;40632;51.442;11.936;2022-08-18T02:12:21;99824.78;;;26.94;50.22
54736;BME280;40632;51.442;11.936;2022-08-18T02:14:49;99826.97;;;27.15;49.84
54736;BME280;40632;51.442;11.936;2022-08-18T02:17:15;99831.16;;;27.60;48.83
54736;BME280;40632;51.442;11.936;2022-08-18T02:19:42;99827.56;;;27.78;48.38
54736;BME280;40632;51.442;11.936;2022-08-18T02:22:10;99819.91;;;27.33;49.55
54736;BME280;40632;51.442;11.936;2022-08-18T02:24:36;99823.47;;;26.96;50.39
54736;BME280;40632;51.442;11.936;2022-08-18T02:27:03;99831.13;;;26.62;50.95
54736;BME280;40632;51.442;11.936;2022-08-18T02:29:28;99834.13;;;26.73;50.95
54736;BME280;40632;51.442;11.936;2022-08-18T02:31:57;99823.13;;;26.74;50.54
54736;BME280;40632;51.442;11.936;2022-08-18T02:34:22;99839.28;;;26.74;50.35
54736;BME280;40632;51.442;11.936;2022-08-18T02:36:48;99834.38;;;27.20;50.05
54736;BME280;40632;51.442;11.936;2022-08-18T02:39:14;99835.38;;;27.07;49.70
54736;BME280;40632;51.442;11.936;2022-08-18T02:41:39;99831.25;;;27.05;49.90
54736;BME280;40632;51.442;11.936;2022-08-18T02:44:05;99830.50;;;26.60;50.98
54736;BME280;40632;51.442;11.936;2022-08-18T02:46:31;99822.22;;;26.62;50.85
54736;BME280;40632;51.442;11.936;2022-08-18T02:48:59;99832.13;;;26.43;51.14
54736;BME280;40632;51.442;11.936;2022-08-18T02:51:25;99832.09;;;26.24;51.65
54736;BME280;40632;51.442;11.936;2022-08-18T02:53:51;99825.69;;;26.44;51.27
54736;BME280;40632;51.442;11.936;2022-08-18T02:56:18;99828.28;;;25.82;52.15
54736;BME280;40632;51.442;11.936;2022-08-18T02:58:44;99823.44;;;26.41;51.80
54736;BME280;40632;51.442;11.936;2022-08-18T03:01:10;99826.13;;;26.22;51.77
54736;BME280;40632;51.442;11.936;2022-08-18T03:03:36;99825.38;;;26.34;51.83
54736;BME280;40632;51.442;11.936;2022-08-18T03:06:05;99827.81;;;26.42;51.24
54736;BME280;40632;51.442;11.936;2022-08-18T03:08:30;99827.50;;;26.50;51.13
54736;BME280;40632;51.442;11.936;2022-08-18T03:10:56;99833.16;;;26.67;51.00
54736;BME280;40632;51.442;11.936;2022-08-18T03:13:22;99828.78;;;27.03;50.34
54736;BME280;40632;51.442;11.936;2022-08-18T03:15:47;99826.47;;;27.07;50.19
54736;BME280;40632;51.442;11.936;2022-08-18T03:18:13;99827.19;;;26.65;50.54
54736;BME280;40632;51.442;11.936;2022-08-18T03:20:39;99831.56;;;26.96;49.66
54736;BME280;40632;51.442;11.936;2022-08-18T03:23:07;99835.72;;;26.55;50.97
54736;BME280;40632;51.442;11.936;2022-08-18T03:25:33;99833.16;;;26.67;50.97
54736;BME280;40632;51.442;11.936;2022-08-18T03:27:59;99827.75;;;26.86;50.67
54736;BME280;40632;51.442;11.936;2022-08-18T03:30:24;99829.53;;;26.55;51.91
54736;BME280;40632;51.442;11.936;2022-08-18T03:32:50;99835.69;;;26.62;51.36
54736;BME280;40632;51.442;11.936;2022-08-18T03:35:18;99833.97;;;27.05;50.35
54736;BME280;40632;51.442;11.936;2022-08-18T03:37:44;99829.81;;;27.20;50.11
54736;BME280;40632;51.442;11.936;2022-08-18T03:40:12;99834.09;;;27.10;50.06
54736;BME280;40632;51.442;11.936;2022-08-18T03:42:38;99838.66;;;27.28;49.94
54736;BME280;40632;51.442;11.936;2022-08-18T03:45:04;99836.88;;;27.03;50.66
54736;BME280;40632;51.442;11.936;2022-08-18T03:47:30;99834.56;;;27.07;50.82
54736;BME280;40632;51.442;11.936;2022-08-18T03:49:56;99828.41;;;26.81;50.84
54736;BME280;40632;51.442;11.936;2022-08-18T03:52:22;99848.22;;;26.06;52.76
54736;BME280;40632;51.442;11.936;2022-08-18T03:54:47;99848.09;;;25.87;53.42
54736;BME280;40632;51.442;11.936;2022-08-18T03:57:16;99842.81;;;26.06;53.60
54736;BME280;40632;51.442;11.936;2022-08-18T03:59:41;99853.97;;;26.10;52.82
54736;BME280;40632;51.442;11.936;2022-08-18T04:02:07;99854.34;;;25.81;53.95
54736;BME280;40632;51.442;11.936;2022-08-18T04:04:33;99854.63;;;26.49;52.70
54736;BME280;40632;51.442;11.936;2022-08-18T04:07:01;99855.53;;;25.92;53.57
54736;BME280;40632;51.442;11.936;2022-08-18T04:09:28;99854.94;;;26.40;52.69
54736;BME280;40632;51.442;11.936;2022-08-18T04:11:55;99859.34;;;26.35;52.87
54736;BME280;40632;51.442;11.936;2022-08-18T04:14:25;99852.81;;;26.24;53.74
54736;BME280;40632;51.442;11.936;2022-08-18T04:16:51;99860.78;;;26.56;52.96
54736;BME280;40632;51.442;11.936;2022-08-18T04:19:17;99863.81;;;26.41;53.91
54736;BME280;40632;51.442;11.936;2022-08-18T04:21:43;99882.03;;;26.20;54.58
54736;BME280;40632;51.442;11.936;2022-08-18T04:24:11;99876.78;;;25.30;56.44
54736;BME280;40632;51.442;11.936;2022-08-18T04:26:39;99876.75;;;26.32;54.64
54736;BME280;40632;51.442;11.936;2022-08-18T04:29:07;99880.28;;;25.69;56.00
54736;BME280;40632;51.442;11.936;2022-08-18T04:31:36;99879.63;;;25.74;55.61
54736;BME280;40632;51.442;11.936;2022-08-18T04:34:02;99884.13;;;25.86;55.72
54736;BME280;40632;51.442;11.936;2022-08-18T04:36:29;99876.16;;;25.66;55.28
54736;BME280;40632;51.442;11.936;2022-08-18T04:38:55;99881.47;;;25.41;56.03
54736;BME280;40632;51.442;11.936;2022-08-18T04:41:20;99872.91;;;25.96;55.26
54736;BME280;40632;51.442;11.936;2022-08-18T04:43:46;99878.06;;;26.23;54.77
54736;BME280;40632;51.442;11.936;2022-08-18T04:46:12;99885.16;;;26.17;55.05
54736;BME280;40632;51.442;11.936;2022-08-18T04:48:40;99877.63;;;26.26;55.00
54736;BME280;40632;51.442;11.936;2022-08-18T04:51:08;99876.66;;;26.20;55.19
54736;BME280;40632;51.442;11.936;2022-08-18T04:53:35;99886.31;;;25.64;57.16
54736;BME280;40632;51.442;11.936;2022-08-18T04:56:01;99885.75;;;25.94;57.21
54736;BME280;40632;51.442;11.936;2022-08-18T04:58:26;99897.28;;;26.27;56.90
54736;BME280;40632;51.442;11.936;2022-08-18T05:00:57;99896.00;;;26.04;57.20
54736;BME280;40632;51.442;11.936;2022-08-18T05:03:23;99891.59;;;25.84;58.10
54736;BME280;40632;51.442;11.936;2022-08-18T05:05:51;99903.31;;;26.22;57.09
54736;BME280;40632;51.442;11.936;2022-08-18T05:08:17;99901.56;;;26.34;57.14
54736;BME280;40632;51.442;11.936;2022-08-18T05:10:43;99905.47;;;26.38;56.90
54736;BME280;40632;51.442;11.936;2022-08-18T05:13:08;99907.69;;;26.92;56.07
54736;BME280;40632;51.442;11.936;2022-08-18T05:15:34;99903.50;;;26.96;55.84
54736;BME280;40632;51.442;11.936;2022-08-18T05:17:59;99901.09;;;26.88;56.53
54736;BME280;40632;51.442;11.936;2022-08-18T05:20:25;99909.53;;;26.73;57.12
54736;BME280;40632;51.442;11.936;2022-08-18T05:22:53;99915.47;;;26.56;58.00
54736;BME280;40632;51.442;11.936;2022-08-18T05:25:19;99913.44;;;26.52;57.92
54736;BME280;40632;51.442;11.936;2022-08-18T05:27:44;99906.69;;;26.68;57.98
54736;BME280;40632;51.442;11.936;2022-08-18T05:30:10;99912.22;;;26.73;57.91
54736;BME280;40632;51.442;11.936;2022-08-18T05:32:39;99919.44;;;27.53;56.99
54736;BME280;40632;51.442;11.936;2022-08-18T05:35:08;99921.75;;;26.94;57.97
54736;BME280;40632;51.442;11.936;2022-08-18T05:37:40;99912.63;;;27.13;57.96
54736;BME280;40632;51.442;11.936;2022-08-18T05:40:13;99916.16;;;27.32;58.19
54736;BME280;40632;51.442;11.936;2022-08-18T05:42:39;99907.91;;;27.46;57.58
54736;BME280;40632;51.442;11.936;2022-08-18T05:45:09;99913.38;;;27.39;57.96
54736;BME280;40632;51.442;11.936;2022-08-18T05:47:36;99914.94;;;26.91;59.08
54736;BME280;40632;51.442;11.936;2022-08-18T05:50:07;99911.13;;;27.36;58.04
54736;BME280;40632;51.442;11.936;2022-08-18T05:52:36;99921.31;;;27.15;59.18
54736;BME280;40632;51.442;11.936;2022-08-18T05:55:06;99912.88;;;26.68;59.99
54736;BME280;40632;51.442;11.936;2022-08-18T05:57:43;99919.19;;;26.80;59.82
54736;BME280;40632;51.442;11.936;2022-08-18T06:00:12;99922.63;;;26.88;60.19
54736;BME280;40632;51.442;11.936;2022-08-18T06:02:43;99910.59;;;27.27;59.71
54736;BME280;40632;51.442;11.936;2022-08-18T06:05:12;99906.72;;;27.05;59.74
54736;BME280;40632;51.442;11.936;2022-08-18T06:07:42;99916.94;;;27.14;59.18
54736;BME280;40632;51.442;11.936;2022-08-18T06:10:10;99913.91;;;27.29;59.42
54736;BME280;40632;51.442;11.936;2022-08-18T06:12:42;99924.28;;;26.89;60.27
54736;BME280;40632;51.442;11.936;2022-08-18T06:15:12;99920.56;;;27.27;59.29
54736;BME280;40632;51.442;11.936;2022-08-18T06:20:58;99927.66;;;27.88;58.80
54736;BME280;40632;51.442;11.936;2022-08-18T06:23:33;99934.19;;;27.81;58.29
54736;BME280;40632;51.442;11.936;2022-08-18T06:26:06;99925.63;;;28.14;57.62
54736;BME280;40632;51.442;11.936;2022-08-18T06:28:52;99934.88;;;27.76;58.87
54736;BME280;40632;51.442;11.936;2022-08-18T06:31:29;99933.44;;;28.69;56.79
54736;BME280;40632;51.442;11.936;2022-08-18T06:34:02;99929.63;;;28.23;57.79
54736;BME280;40632;51.442;11.936;2022-08-18T06:36:38;99936.72;;;28.60;56.90
54736;BME280;40632;51.442;11.936;2022-08-18T06:39:17;99929.72;;;28.17;57.65
54736;BME280;40632;51.442;11.936;2022-08-18T06:41:46;99931.28;;;28.24;58.03
54736;BME280;40632;51.442;11.936;2022-08-18T06:44:19;99932.03;;;28.67;56.84
54736;BME280;40632;51.442;11.936;2022-08-18T06:46:48;99932.50;;;28.40;58.05
54736;BME280;40632;51.442;11.936;2022-08-18T06:49:26;99949.44;;;28.71;57.35
54736;BME280;40632;51.442;11.936;2022-08-18T06:51:52;99943.06;;;28.77;56.35
54736;BME280;40632;51.442;11.936;2022-08-18T06:54:27;99944.56;;;28.38;57.69
54736;BME280;40632;51.442;11.936;2022-08-18T06:56:53;99942.94;;;28.48;58.18
54736;BME280;40632;51.442;11.936;2022-08-18T06:59:26;99944.88;;;28.29;58.06
54736;BME280;40632;51.442;11.936;2022-08-18T07:01:55;99944.22;;;29.28;56.20
54736;BME280;40632;51.442;11.936;2022-08-18T07:04:38;99955.88;;;28.94;56.69
54736;BME280;40632;51.442;11.936;2022-08-18T07:07:17;99963.28;;;28.86;56.53
54736;BME280;40632;51.442;11.936;2022-08-18T07:09:43;99962.13;;;28.94;57.09
54736;BME280;40632;51.442;11.936;2022-08-18T07:12:18;99964.72;;;28.23;58.54
54736;BME280;40632;51.442;11.936;2022-08-18T07:14:50;99961.53;;;28.57;58.12
54736;BME280;40632;51.442;11.936;2022-08-18T07:17:20;99967.75;;;28.57;58.15
54736;BME280;40632;51.442;11.936;2022-08-18T07:19:57;99969.97;;;28.84;57.29
54736;BME280;40632;51.442;11.936;2022-08-18T07:22:23;99970.00;;;28.96;56.54
54736;BME280;40632;51.442;11.936;2022-08-18T07:24:51;99975.91;;;28.50;56.99
54736;BME280;40632;51.442;11.936;2022-08-18T07:27:18;99974.16;;;28.44;57.53
54736;BME280;40632;51.442;11.936;2022-08-18T07:30:03;99981.25;;;28.93;56.52
54736;BME280;40632;51.442;11.936;2022-08-18T07:32:33;99980.91;;;29.24;56.10
54736;BME280;40632;51.442;11.936;2022-08-18T07:35:02;99974.19;;;29.39;55.32
54736;BME280;40632;51.442;11.936;2022-08-18T07:37:31;99988.78;;;29.14;55.54
54736;BME280;40632;51.442;11.936;2022-08-18T07:40:02;99992.16;;;29.86;54.81
54736;BME280;40632;51.442;11.936;2022-08-18T07:42:34;99998.13;;;30.16;53.27
54736;BME280;40632;51.442;11.936;2022-08-18T07:45:11;100000.09;;;30.04;53.49
54736;BME280;40632;51.442;11.936;2022-08-18T07:47:44;100008.53;;;30.08;53.30
54736;BME280;40632;51.442;11.936;2022-08-18T07:50:14;100010.78;;;30.11;53.03
54736;BME280;40632;51.442;11.936;2022-08-18T07:52:43;100008.53;;;30.08;52.74
54736;BME280;40632;51.442;11.936;2022-08-18T07:55:23;100020.72;;;30.22;52.87
54736;BME280;40632;51.442;11.936;2022-08-18T07:57:56;100023.97;;;30.07;52.66
54736;BME280;40632;51.442;11.936;2022-08-18T08:00:33;100019.28;;;30.02;53.11
54736;BME280;40632;51.442;11.936;2022-08-18T08:03:09;100018.38;;;29.85;53.85
54736;BME280;40632;51.442;11.936;2022-08-18T08:05:44;100020.88;;;29.22;55.16
54736;BME280;40632;51.442;11.936;2022-08-18T08:08:19;100007.56;;;29.44;54.99
54736;BME280;40632;51.442;11.936;2022-08-18T08:10:52;100017.69;;;29.90;53.95
54736;BME280;40632;51.442;11.936;2022-08-18T08:13:26;100018.03;;;29.93;53.77
54736;BME280;40632;51.442;11.936;2022-08-18T08:16:07;100021.06;;;29.97;53.54
54736;BME280;40632;51.442;11.936;2022-08-18T08:18:39;100023.09;;;30.18;53.12
54736;BME280;40632;51.442;11.936;2022-08-18T08:21:10;100018.88;;;30.56;52.50
54736;BME280;40632;51.442;11.936;2022-08-18T08:23:44;100013.38;;;30.68;52.76
54736;BME280;40632;51.442;11.936;2022-08-18T08:26:23;100008.28;;;30.38;53.60
54736;BME280;40632;51.442;11.936;2022-08-18T08:28:57;100000.56;;;30.47;54.33
54736;BME280;40632;51.442;11.936;2022-08-18T08:31:33;100001.41;;;30.01;54.28
54736;BME280;40632;51.442;11.936;2022-08-18T08:34:09;99986.31;;;30.06;54.37
54736;BME280;40632;51.442;11.936;2022-08-18T08:36:39;99985.53;;;29.53;55.84
54736;BME280;40632;51.442;11.936;2022-08-18T08:39:10;99978.91;;;30.01;54.00
54736;BME280;40632;51.442;11.936;2022-08-18T08:41:39;99983.91;;;29.52;55.37
54736;BME280;40632;51.442;11.936;2022-08-18T08:44:08;99979.53;;;30.37;53.31
54736;BME280;40632;51.442;11.936;2022-08-18T08:46:43;99985.47;;;30.68;52.95
54736;BME280;40632;51.442;11.936;2022-08-18T08:49:17;99992.75;;;30.67;53.07
54736;BME280;40632;51.442;11.936;2022-08-18T08:51:49;99987.03;;;30.47;52.70
54736;BME280;40632;51.442;11.936;2022-08-18T08:54:19;99981.25;;;31.33;51.88
54736;BME280;40632;51.442;11.936;2022-08-18T08:56:49;99982.56;;;30.74;52.50
54736;BME280;40632;51.442;11.936;2022-08-18T08:59:16;99983.41;;;30.75;52.78
54736;BME280;40632;51.442;11.936;2022-08-18T09:01:54;99986.75;;;30.99;51.46
54736;BME280;40632;51.442;11.936;2022-08-18T09:04:29;99999.22;;;32.05;48.97
54736;BME280;40632;51.442;11.936;2022-08-18T09:07:09;99999.16;;;32.27;48.80
54736;BME280;40632;51.442;11.936;2022-08-18T09:09:54;100001.03;;;31.33;49.94
54736;BME280;40632;51.442;11.936;2022-08-18T09:12:33;100004.03;;;31.32;49.64
54736;BME280;40632;51.442;11.936;2022-08-18T09:15:15;100002.38;;;31.31;50.29
54736;BME280;40632;51.442;11.936;2022-08-18T09:18:00;99999.50;;;30.48;50.86
54736;BME280;40632;51.442;11.936;2022-08-18T09:20:47;99984.66;;;31.45;48.99
54736;BME280;40632;51.442;11.936;2022-08-18T09:23:18;99983.31;;;31.04;50.10
54736;BME280;40632;51.442;11.936;2022-08-18T09:25:48;99975.56;;;31.12;49.57
54736;BME280;40632;51.442;11.936;2022-08-18T09:28:16;99973.75;;;30.16;51.81
54736;BME280;40632;51.442;11.936;2022-08-18T09:30:46;99960.16;;;30.79;50.80
54736;BME280;40632;51.442;11.936;2022-08-18T09:33:19;99967.81;;;30.48;51.64
54736;BME280;40632;51.442;11.936;2022-08-18T09:36:03;99967.47;;;30.62;51.11
54736;BME280;40632;51.442;11.936;2022-08-18T09:38:35;99975.78;;;31.50;48.55
54736;BME280;40632;51.442;11.936;2022-08-18T09:41:07;99984.88;;;30.83;50.00
54736;BME280;40632;51.442;11.936;2022-08-18T09:43:38;99986.44;;;30.95;49.65
54736;BME280;40632;51.442;11.936;2022-08-18T09:46:05;99984.06;;;30.99;49.82
54736;BME280;40632;51.442;11.936;2022-08-18T09:48:35;99989.47;;;32.09;47.95
54736;BME280;40632;51.442;11.936;2022-08-18T09:51:31;99979.69;;;32.08;47.25
54736;BME280;40632;51.442;11.936;2022-08-18T09:54:18;99978.66;;;31.43;48.57
54736;BME280;40632;51.442;11.936;2022-08-18T10:05:39;99983.19;;;32.04;47.39
54736;BME280;40632;51.442;11.936;2022-08-18T10:11:23;99994.00;;;32.31;46.55
54736;BME280;40632;51.442;11.936;2022-08-18T10:14:03;99993.84;;;32.75;46.08
54736;BME280;40632;51.442;11.936;2022-08-18T10:16:39;100003.47;;;33.36;44.61
54736;BME280;40632;51.442;11.936;2022-08-18T10:19:16;100012.38;;;33.89;43.39
54736;BME280;40632;51.442;11.936;2022-08-18T10:22:09;100008.25;;;32.76;44.16
54736;BME280;40632;51.442;11.936;2022-08-18T10:24:39;100003.06;;;32.74;44.04
54736;BME280;40632;51.442;11.936;2022-08-18T10:27:35;100009.47;;;33.38;43.18
54736;BME280;40632;51.442;11.936;2022-08-18T10:30:01;99998.59;;;32.95;44.07
54736;BME280;40632;51.442;11.936;2022-08-18T10:32:39;99995.06;;;32.95;43.90
54736;BME280;40632;51.442;11.936;2022-08-18T10:38:20;100017.31;;;32.86;44.41
54736;BME280;40632;51.442;11.936;2022-08-18T10:40:53;100017.25;;;33.77;42.87
54736;BME280;40632;51.442;11.936;2022-08-18T10:43:29;100016.81;;;34.62;42.16
54736;BME280;40632;51.442;11.936;2022-08-18T10:45:57;100021.19;;;34.43;42.64
54736;BME280;40632;51.442;11.936;2022-08-18T10:48:24;100010.56;;;34.62;42.68
54736;BME280;40632;51.442;11.936;2022-08-18T10:50:54;100016.00;;;34.41;43.00
54736;BME280;40632;51.442;11.936;2022-08-18T10:53:27;100007.81;;;34.46;43.09
54736;BME280;40632;51.442;11.936;2022-08-18T10:56:00;100011.34;;;34.21;43.20
54736;BME280;40632;51.442;11.936;2022-08-18T10:58:55;100017.56;;;34.01;43.14
54736;BME280;40632;51.442;11.936;2022-08-18T11:01:32;100022.81;;;34.23;43.40
54736;BME280;40632;51.442;11.936;2022-08-18T11:04:04;100018.41;;;34.07;43.08
54736;BME280;40632;51.442;11.936;2022-08-18T11:06:38;100014.09;;;34.21;42.76
54736;BME280;40632;51.442;11.936;2022-08-18T11:09:07;100019.94;;;33.67;44.61
54736;BME280;40632;51.442;11.936;2022-08-18T11:11:35;100009.91;;;33.19;44.47
54736;BME280;40632;51.442;11.936;2022-08-18T11:14:08;100015.06;;;32.78;46.07
54736;BME280;40632;51.442;11.936;2022-08-18T11:16:46;100017.44;;;32.37;47.07
54736;BME280;40632;51.442;11.936;2022-08-18T11:19:15;100021.41;;;33.37;45.05
54736;BME280;40632;51.442;11.936;2022-08-18T11:21:44;100012.59;;;32.72;45.39
54736;BME280;40632;51.442;11.936;2022-08-18T11:24:16;100017.47;;;31.88;47.06
54736;BME280;40632;51.442;11.936;2022-08-18T11:26:44;100013.50;;;32.55;45.89
54736;BME280;40632;51.442;11.936;2022-08-18T11:29:23;100019.13;;;32.43;45.73
54736;BME280;40632;51.442;11.936;2022-08-18T11:31:52;100014.88;;;31.76;47.44
54736;BME280;40632;51.442;11.936;2022-08-18T11:34:26;100018.31;;;31.66;47.35
54736;BME280;40632;51.442;11.936;2022-08-18T11:36:57;100019.63;;;30.69;49.40
54736;BME280;40632;51.442;11.936;2022-08-18T11:39:27;100016.75;;;31.31;48.33
54736;BME280;40632;51.442;11.936;2022-08-18T11:41:53;100021.53;;;31.02;48.85
54736;BME280;40632;51.442;11.936;2022-08-18T11:44:21;100015.09;;;30.74;49.71
54736;BME280;40632;51.442;11.936;2022-08-18T11:46:47;100008.53;;;30.36;50.50
54736;BME280;40632;51.442;11.936;2022-08-18T11:49:16;100003.53;;;30.45;50.53
54736;BME280;40632;51.442;11.936;2022-08-18T11:51:55;100003.59;;;31.01;49.94
54736;BME280;40632;51.442;11.936;2022-08-18T11:54:22;100000.31;;;30.99;49.58
54736;BME280;40632;51.442;11.936;2022-08-18T11:57:26;99992.09;;;30.94;49.67
54736;BME280;40632;51.442;11.936;2022-08-18T11:59:52;99997.78;;;30.41;51.01
54736;BME280;40632;51.442;11.936;2022-08-18T12:02:18;99983.53;;;30.85;50.52
54736;BME280;40632;51.442;11.936;2022-08-18T12:04:49;99983.13;;;30.09;51.37
54736;BME280;40632;51.442;11.936;2022-08-18T12:07:16;99981.69;;;30.86;50.44
54736;BME280;40632;51.442;11.936;2022-08-18T12:10:09;99967.91;;;31.48;49.10
54736;BME280;40632;51.442;11.936;2022-08-18T12:12:43;99974.38;;;30.69;49.60
54736;BME280;40632;51.442;11.936;2022-08-18T12:15:25;99974.53;;;30.96;49.92
54736;BME280;40632;51.442;11.936;2022-08-18T12:17:51;99972.97;;;30.67;49.84
54736;BME280;40632;51.442;11.936;2022-08-18T12:20:17;99974.31;;;30.64;50.49
54736;BME280;40632;51.442;11.936;2022-08-18T12:22:44;99979.03;;;30.91;49.53
54736;BME280;40632;51.442;11.936;2022-08-18T12:25:14;99983.88;;;31.28;49.13
54736;BME280;40632;51.442;11.936;2022-08-18T12:27:43;99981.09;;;31.23;48.76
54736;BME280;40632;51.442;11.936;2022-08-18T12:30:10;99992.28;;;30.87;50.42
54736;BME280;40632;51.442;11.936;2022-08-18T12:32:36;99982.19;;;31.44;48.97
54736;BME280;40632;51.442;11.936;2022-08-18T12:35:03;99976.69;;;31.39;49.14
54736;BME280;40632;51.442;11.936;2022-08-18T12:37:30;99970.63;;;32.03;48.08
54736;BME280;40632;51.442;11.936;2022-08-18T12:39:57;99971.75;;;31.80;48.17
54736;BME280;40632;51.442;11.936;2022-08-18T12:42:23;99966.38;;;30.79;50.06
54736;BME280;40632;51.442;11.936;2022-08-18T12:44:52;99976.66;;;30.77;50.66
54736;BME280;40632;51.442;11.936;2022-08-18T12:47:19;99972.34;;;31.38;49.91
54736;BME280;40632;51.442;11.936;2022-08-18T12:49:46;99961.19;;;32.05;48.45
54736;BME280;40632;51.442;11.936;2022-08-18T12:52:12;99970.03;;;31.68;48.96
54736;BME280;40632;51.442;11.936;2022-08-18T12:54:37;99976.16;;;31.59;49.10
54736;BME280;40632;51.442;11.936;2022-08-18T12:57:06;99979.56;;;31.49;49.20
54736;BME280;40632;51.442;11.936;2022-08-18T12:59:33;99971.22;;;32.05;48.33
54736;BME280;40632;51.442;11.936;2022-08-18T13:02:02;99978.97;;;31.69;49.61
54736;BME280;40632;51.442;11.936;2022-08-18T13:04:27;99978.13;;;31.02;50.52
54736;BME280;40632;51.442;11.936;2022-08-18T13:06:55;99971.84;;;31.41;50.01
54736;BME280;40632;51.442;11.936;2022-08-18T13:09:22;99972.78;;;32.01;48.83
54736;BME280;40632;51.442;11.936;2022-08-18T13:11:48;99977.09;;;31.97;49.27
54736;BME280;40632;51.442;11.936;2022-08-18T13:14:14;99967.28;;;32.18;48.31
54736;BME280;40632;51.442;11.936;2022-08-18T13:16:40;99968.53;;;32.75;47.50
54736;BME280;40632;51.442;11.936;2022-08-18T13:19:08;99967.44;;;33.13;46.92
54736;BME280;40632;51.442;11.936;2022-08-18T13:21:35;99967.69;;;33.70;45.67